createdAt,value
2023-03-04T00:00:00.764Z,7.65
2023-03-04T00:02:27.563Z,9.10
2023-03-04T00:04:54.369Z,8.15
2023-03-04T00:07:21.332Z,9.18
2023-03-04T00:09:48.156Z,7.97
2023-03-04T00:12:15.278Z,6.88
2023-03-04T00:17:08.897Z,7.63
2023-03-04T00:19:35.763Z,9.55
2023-03-04T00:22:04.418Z,7.80
2023-03-04T00:24:31.623Z,8.95
2023-03-04T00:26:58.654Z,9.18
2023-03-04T00:29:25.628Z,7.80
2023-03-04T00:31:52.501Z,7.03
2023-03-04T00:34:19.498Z,8.48
2023-03-04T00:36:46.603Z,9.80
2023-03-04T00:41:40.484Z,7.60
2023-03-04T00:44:08.576Z,8.93
2023-03-04T00:49:02.140Z,7.47
2023-03-04T00:51:29.027Z,7.38
2023-03-04T00:53:58.511Z,8.55
2023-03-04T00:56:26.717Z,10.82
2023-03-04T00:58:53.507Z,7.57
2023-03-04T01:01:20.348Z,8.73
2023-03-04T01:03:47.113Z,8.25
2023-03-04T01:06:14.527Z,8.77
2023-03-04T01:08:41.331Z,7.60
2023-03-04T01:11:08.608Z,8.02
2023-03-04T01:13:35.439Z,8.27
2023-03-04T01:16:03.528Z,8.57
2023-03-04T01:18:30.621Z,8.50
2023-03-04T01:23:24.186Z,7.55
2023-03-04T01:25:51.080Z,9.70
2023-03-04T01:28:19.127Z,8.48
2023-03-04T01:30:47.868Z,8.85
2023-03-04T01:33:14.825Z,8.13
2023-03-04T01:35:42.442Z,7.97
2023-03-04T01:38:09.223Z,9.02
2023-03-04T01:40:37.218Z,7.72
2023-03-04T01:43:04.237Z,8.73
2023-03-04T01:45:32.273Z,11.30
2023-03-04T01:47:59.026Z,11.10
2023-03-04T01:50:32.593Z,11.38
2023-03-04T01:52:59.916Z,11.68
2023-03-04T01:55:27.252Z,11.82
2023-03-04T01:57:55.634Z,11.75
2023-03-04T02:00:32.433Z,12.85
2023-03-04T02:03:03.860Z,11.23
2023-03-04T02:05:31.393Z,10.55
2023-03-04T02:07:59.432Z,11.60
2023-03-04T02:10:26.655Z,13.35
2023-03-04T02:12:54.218Z,12.55
2023-03-04T02:15:22.026Z,14.57
2023-03-04T02:17:49.548Z,13.35
2023-03-04T02:20:41.493Z,14.55
2023-03-04T02:23:17.239Z,14.77
2023-03-04T02:26:09.527Z,11.00
2023-03-04T02:28:36.253Z,12.50
2023-03-04T02:31:03.254Z,13.50
2023-03-04T02:33:30.528Z,15.60
2023-03-04T02:35:59.403Z,16.95
2023-03-04T02:38:26.354Z,16.67
2023-03-04T02:40:54.650Z,14.93
2023-03-04T02:43:21.532Z,16.42
2023-03-04T02:45:50.721Z,15.45
2023-03-04T02:48:21.162Z,16.15
2023-03-04T02:50:53.282Z,17.90
2023-03-04T02:53:21.019Z,20.10
2023-03-04T02:55:49.435Z,20.80
2023-03-04T02:58:17.281Z,17.35
2023-03-04T03:00:43.964Z,17.67
2023-03-04T03:03:11.747Z,18.40
2023-03-04T03:05:39.444Z,18.00
2023-03-04T03:08:07.455Z,18.02
2023-03-04T03:10:34.558Z,20.10
2023-03-04T03:13:02.013Z,18.80
2023-03-04T03:15:29.640Z,16.70
2023-03-04T03:17:56.942Z,19.77
2023-03-04T03:20:23.784Z,20.38
2023-03-04T03:22:50.537Z,17.95
2023-03-04T03:25:17.690Z,19.20
2023-03-04T03:30:14.792Z,14.07
2023-03-04T03:32:41.612Z,17.67
2023-03-04T03:35:08.869Z,16.30
2023-03-04T03:40:02.545Z,22.55
2023-03-04T03:42:29.364Z,21.20
2023-03-04T03:44:56.378Z,24.30
2023-03-04T03:47:23.383Z,26.70
2023-03-04T03:52:16.950Z,29.30
2023-03-04T03:54:44.814Z,20.83
2023-03-04T03:57:11.567Z,18.55
2023-03-04T03:59:38.317Z,17.25
2023-03-04T04:02:05.328Z,22.88
2023-03-04T04:04:32.506Z,20.02
2023-03-04T04:09:26.141Z,20.75
2023-03-04T04:11:52.910Z,19.65
2023-03-04T04:14:19.625Z,20.10
2023-03-04T04:16:47.360Z,20.15
2023-03-04T04:19:19.018Z,19.17
2023-03-04T04:21:46.162Z,19.25
2023-03-04T04:26:40.226Z,21.45
2023-03-04T04:31:34.078Z,20.90
2023-03-04T04:36:27.627Z,19.67
2023-03-04T04:38:54.326Z,21.13
2023-03-04T04:41:36.159Z,22.50
2023-03-04T04:44:03.019Z,20.33
2023-03-04T04:46:30.096Z,19.52
2023-03-04T04:51:23.482Z,25.13
2023-03-04T04:53:50.243Z,20.30
2023-03-04T04:56:20.453Z,23.92
2023-03-04T04:58:48.226Z,18.83
2023-03-04T05:01:15.596Z,22.15
2023-03-04T05:03:42.629Z,23.98
2023-03-04T05:06:10.504Z,24.10
2023-03-04T05:08:37.200Z,25.17
2023-03-04T05:11:05.484Z,23.20
2023-03-04T05:13:33.072Z,25.27
2023-03-04T05:15:59.995Z,28.27
2023-03-04T05:18:27.708Z,27.65
2023-03-04T05:20:57.142Z,28.45
2023-03-04T05:23:25.376Z,25.83
2023-03-04T05:25:52.521Z,26.15
2023-03-04T05:30:46.701Z,25.83
2023-03-04T05:33:15.340Z,28.98
2023-03-04T05:35:43.582Z,26.00
2023-03-04T05:38:13.094Z,28.15
2023-03-04T05:40:41.032Z,26.70
2023-03-04T05:43:08.293Z,25.40
2023-03-04T05:45:35.023Z,25.17
2023-03-04T05:48:03.124Z,25.38
2023-03-04T05:50:30.358Z,24.88
2023-03-04T05:52:57.304Z,27.38
2023-03-04T05:55:24.005Z,24.80
2023-03-04T05:57:51.826Z,25.83
2023-03-04T06:00:18.785Z,23.35
2023-03-04T06:02:45.610Z,21.90
2023-03-04T06:05:14.082Z,24.05
2023-03-04T06:07:43.054Z,23.27
2023-03-04T06:10:12.987Z,22.80
2023-03-04T06:12:39.940Z,25.77
2023-03-04T06:15:07.268Z,25.55
2023-03-04T06:17:34.030Z,27.85
2023-03-04T06:20:00.831Z,26.80
2023-03-04T06:22:27.590Z,28.85
2023-03-04T06:24:54.302Z,26.73
2023-03-04T06:27:21.031Z,24.00
2023-03-04T06:29:47.789Z,24.77
2023-03-04T06:32:14.554Z,25.83
2023-03-04T06:34:41.354Z,26.88
2023-03-04T06:37:08.110Z,24.30
2023-03-04T06:39:34.975Z,26.00
2023-03-04T06:42:01.767Z,27.30
2023-03-04T06:44:28.624Z,26.00
2023-03-04T06:46:55.442Z,27.45
2023-03-04T06:49:22.139Z,26.23
2023-03-04T06:51:48.892Z,26.45
2023-03-04T06:54:15.771Z,26.85
2023-03-04T06:56:42.539Z,30.00
2023-03-04T06:59:09.322Z,27.40
2023-03-04T07:01:36.666Z,26.23
2023-03-04T07:04:03.733Z,28.67
2023-03-04T07:08:57.624Z,31.40
2023-03-04T07:13:52.175Z,30.13
2023-03-04T07:16:21.933Z,33.38
2023-03-04T07:18:49.295Z,31.63
2023-03-04T07:21:17.270Z,32.08
2023-03-04T07:23:44.264Z,29.63
2023-03-04T07:26:11.388Z,29.25
2023-03-04T07:31:30.188Z,32.28
2023-03-04T07:34:08.071Z,29.02
2023-03-04T07:39:04.400Z,31.38
2023-03-04T07:41:31.195Z,31.95
2023-03-04T07:43:58.741Z,33.50
2023-03-04T07:46:25.754Z,32.13
2023-03-04T07:48:52.551Z,31.33
2023-03-04T07:51:21.236Z,32.97
2023-03-04T07:53:52.949Z,29.40
2023-03-04T07:56:22.471Z,31.67
2023-03-04T07:58:50.161Z,30.15
2023-03-04T08:01:22.160Z,29.20
2023-03-04T08:03:49.130Z,29.27
2023-03-04T08:06:17.975Z,27.80
2023-03-04T08:08:45.209Z,30.48
2023-03-04T08:11:18.940Z,29.85
2023-03-04T08:13:46.146Z,31.35
2023-03-04T08:18:48.080Z,28.65
2023-03-04T08:21:18.328Z,27.20
2023-03-04T08:23:46.233Z,30.27
2023-03-04T08:26:16.297Z,29.17
2023-03-04T08:28:43.624Z,31.08
2023-03-04T08:31:10.451Z,28.95
2023-03-04T08:33:37.224Z,28.80
2023-03-04T08:36:04.556Z,35.75
2023-03-04T08:38:32.037Z,33.80
2023-03-04T08:40:59.605Z,30.48
2023-03-04T08:43:27.047Z,27.73
2023-03-04T08:45:58.041Z,28.42
2023-03-04T08:48:25.389Z,27.33
2023-03-04T08:53:20.776Z,29.27
2023-03-04T08:55:48.345Z,28.25
2023-03-04T08:58:15.058Z,31.02
2023-03-04T09:00:45.056Z,28.70
2023-03-04T09:03:13.041Z,25.13
2023-03-04T09:05:40.389Z,24.70
2023-03-04T09:08:08.089Z,26.85
2023-03-04T09:10:34.920Z,28.15
2023-03-04T09:13:02.033Z,23.88
2023-03-04T09:17:55.609Z,25.27
2023-03-04T09:20:23.084Z,21.42
2023-03-04T09:22:49.922Z,26.55
2023-03-04T09:25:16.714Z,24.27
2023-03-04T09:27:43.982Z,23.45
2023-03-04T09:30:12.333Z,21.88
2023-03-04T09:32:39.210Z,22.75
2023-03-04T09:35:06.454Z,22.80
2023-03-04T09:37:33.396Z,21.75
2023-03-04T09:40:00.194Z,22.42
2023-03-04T09:42:33.418Z,21.55
2023-03-04T09:45:00.699Z,21.40
2023-03-04T09:47:28.288Z,21.48
2023-03-04T09:50:05.130Z,21.60
2023-03-04T09:53:13.588Z,21.25
2023-03-04T09:55:43.887Z,21.38
2023-03-04T09:58:48.388Z,20.30
2023-03-04T10:01:36.940Z,18.30
2023-03-04T10:04:18.559Z,17.52
2023-03-04T10:06:51.515Z,18.95
2023-03-04T10:09:26.311Z,21.50
2023-03-04T10:12:03.052Z,18.45
2023-03-04T10:14:43.247Z,17.73
2023-03-04T10:17:40.081Z,16.33
2023-03-04T10:20:21.724Z,18.48
2023-03-04T10:22:51.742Z,16.75
2023-03-04T10:25:30.819Z,14.82
2023-03-04T10:27:59.349Z,14.30
2023-03-04T10:30:54.844Z,15.23
2023-03-04T10:33:25.066Z,15.20
2023-03-04T10:36:14.642Z,15.40
2023-03-04T10:38:42.533Z,16.70
2023-03-04T10:41:19.743Z,16.42
2023-03-04T10:44:01.695Z,13.15
2023-03-04T10:46:29.504Z,14.60
2023-03-04T10:48:56.851Z,13.40
2023-03-04T10:51:26.292Z,12.63
2023-03-04T10:53:59.003Z,13.85
2023-03-04T10:56:45.660Z,13.10
2023-03-04T10:59:54.192Z,13.90
2023-03-04T11:02:27.702Z,15.83
2023-03-04T11:05:07.099Z,13.02
2023-03-04T11:07:54.058Z,14.02
2023-03-04T11:10:25.785Z,16.13
2023-03-04T11:13:00.417Z,9.98
2023-03-04T11:15:29.738Z,7.72
2023-03-04T11:18:03.903Z,8.38
2023-03-04T11:20:38.329Z,7.78
2023-03-04T11:23:12.123Z,8.02
2023-03-04T11:25:47.387Z,8.25
2023-03-04T11:28:16.895Z,5.78
2023-03-04T11:31:01.852Z,7.50
2023-03-04T11:33:41.635Z,7.43
2023-03-04T11:36:38.498Z,7.55
2023-03-04T11:39:17.009Z,7.22
2023-03-04T11:41:52.067Z,6.90
2023-03-04T11:44:18.985Z,5.72
2023-03-04T11:47:00.544Z,5.40
2023-03-04T11:49:49.230Z,7.30
2023-03-04T11:52:27.873Z,6.10
2023-03-04T11:55:26.957Z,6.57
2023-03-04T11:58:31.630Z,6.65
2023-03-04T12:01:09.855Z,6.80
2023-03-04T12:04:09.949Z,6.70
2023-03-04T12:06:57.971Z,6.47
2023-03-04T12:09:55.924Z,7.03
2023-03-04T12:12:50.115Z,5.72
2023-03-04T12:15:25.148Z,4.72
2023-03-04T12:18:06.708Z,5.82
2023-03-04T12:20:53.049Z,4.70
2023-03-04T12:23:38.369Z,5.95
2023-03-04T12:26:29.899Z,5.97
2023-03-04T12:29:02.132Z,5.63
2023-03-04T12:31:54.278Z,5.70
2023-03-04T12:34:31.956Z,5.65
2023-03-04T12:40:19.475Z,5.65
2023-03-04T12:42:55.625Z,5.13
2023-03-04T12:45:31.412Z,6.97
2023-03-04T12:48:33.231Z,6.30
2023-03-04T12:51:52.094Z,4.85
2023-03-04T12:54:37.433Z,5.28
2023-03-04T12:57:09.550Z,4.50
2023-03-04T12:59:41.441Z,5.47
2023-03-04T13:02:22.828Z,3.80
2023-03-04T13:05:24.657Z,4.68
2023-03-04T13:08:04.078Z,5.22
2023-03-04T13:10:31.536Z,4.30
2023-03-04T13:13:02.437Z,4.53
2023-03-04T13:15:33.289Z,5.38
2023-03-04T13:18:04.316Z,4.35
2023-03-04T13:20:30.978Z,4.57
2023-03-04T13:22:59.433Z,4.22
2023-03-04T13:25:43.864Z,4.13
2023-03-04T13:28:10.821Z,4.32
2023-03-04T13:33:16.308Z,4.13
2023-03-04T13:35:48.985Z,5.35
2023-03-04T13:38:38.643Z,3.65
2023-03-04T13:41:34.603Z,5.93
2023-03-04T13:44:06.014Z,3.97
2023-03-04T13:46:43.621Z,4.65
2023-03-04T13:51:47.118Z,4.53
2023-03-04T13:56:46.763Z,4.60
2023-03-04T13:59:21.206Z,5.22
2023-03-04T14:01:47.848Z,5.40
2023-03-04T14:04:19.194Z,4.90
2023-03-04T14:06:48.438Z,4.45
2023-03-04T14:09:27.203Z,4.75
2023-03-04T14:11:57.142Z,4.80
2023-03-04T14:14:48.408Z,5.00
2023-03-04T14:17:23.265Z,4.45
2023-03-04T14:19:52.479Z,3.75
2023-03-04T14:22:29.614Z,5.50
2023-03-04T14:24:59.078Z,5.30
2023-03-04T14:27:26.141Z,4.90
2023-03-04T14:32:24.457Z,4.72
2023-03-04T14:34:54.642Z,4.95
2023-03-04T14:37:52.285Z,6.07
2023-03-04T14:40:30.082Z,4.80
2023-03-04T14:43:04.035Z,5.07
2023-03-04T14:45:31.116Z,5.53
2023-03-04T14:48:05.739Z,4.55
2023-03-04T14:50:34.082Z,4.93
2023-03-04T14:53:07.240Z,4.35
2023-03-04T14:55:34.740Z,4.57
2023-03-04T14:58:23.046Z,4.95
2023-03-04T15:01:03.396Z,4.50
2023-03-04T15:03:32.130Z,4.75
2023-03-04T15:06:21.279Z,4.63
2023-03-04T15:08:59.285Z,5.20
2023-03-04T15:11:48.021Z,5.18
2023-03-04T15:14:44.400Z,5.10
2023-03-04T15:17:37.289Z,4.22
2023-03-04T15:20:06.903Z,4.88
2023-03-04T15:22:54.501Z,4.93
2023-03-04T15:25:22.499Z,5.85
2023-03-04T15:27:50.197Z,6.32
2023-03-04T15:30:23.963Z,5.53
2023-03-04T15:32:51.206Z,5.32
2023-03-04T15:35:20.033Z,6.70
2023-03-04T15:37:49.634Z,5.45
2023-03-04T15:40:33.164Z,7.00
2023-03-04T15:43:02.731Z,6.70
2023-03-04T15:45:38.344Z,6.20
2023-03-04T15:48:11.779Z,6.75
2023-03-04T15:50:44.467Z,6.88
2023-03-04T15:53:37.819Z,5.93
2023-03-04T15:56:08.144Z,7.25
2023-03-04T15:58:35.494Z,5.93
2023-03-04T16:01:02.582Z,6.20
2023-03-04T16:03:29.619Z,6.13
2023-03-04T16:05:57.194Z,6.43
2023-03-04T16:08:25.227Z,6.78
2023-03-04T16:10:53.725Z,6.80
2023-03-04T16:13:23.551Z,7.05
2023-03-04T16:15:51.107Z,7.55
2023-03-04T16:18:18.069Z,6.22
2023-03-04T16:20:47.482Z,7.40
2023-03-04T16:23:23.615Z,5.80
2023-03-04T16:25:54.887Z,7.80
2023-03-04T16:28:22.329Z,7.47
2023-03-04T16:30:49.540Z,6.60
2023-03-04T16:33:16.379Z,7.63
2023-03-04T16:35:44.373Z,7.03
2023-03-04T16:38:23.115Z,8.23
2023-03-04T16:40:49.917Z,7.60
2023-03-04T16:43:16.790Z,7.35
2023-03-04T16:45:44.086Z,8.32
2023-03-04T16:48:11.094Z,6.63
2023-03-04T16:50:38.880Z,6.47
2023-03-04T16:53:10.913Z,8.15
2023-03-04T16:55:37.669Z,7.53
2023-03-04T16:58:06.870Z,7.05
2023-03-04T17:00:34.843Z,6.60
2023-03-04T17:03:02.122Z,6.28
2023-03-04T17:05:31.957Z,7.55
2023-03-04T17:07:58.998Z,8.32
2023-03-04T17:12:53.263Z,7.05
2023-03-04T17:15:20.401Z,7.03
2023-03-04T17:20:17.207Z,7.03
2023-03-04T17:22:44.748Z,6.95
2023-03-04T17:25:13.281Z,8.75
2023-03-04T17:27:40.771Z,7.28
2023-03-04T17:30:11.522Z,7.45
2023-03-04T17:32:40.021Z,8.10
2023-03-04T17:35:08.322Z,9.00
2023-03-04T17:37:35.739Z,8.60
2023-03-04T17:40:08.629Z,9.05
2023-03-04T17:42:35.478Z,7.38
2023-03-04T17:45:02.582Z,8.95
2023-03-04T17:49:56.284Z,8.18
2023-03-04T17:52:23.092Z,7.85
2023-03-04T17:54:50.395Z,7.68
2023-03-04T17:57:17.324Z,10.43
2023-03-04T17:59:44.074Z,11.60
2023-03-04T18:02:15.999Z,11.80
2023-03-04T18:04:45.280Z,9.90
2023-03-04T18:07:12.102Z,10.63
2023-03-04T18:09:39.762Z,12.07
2023-03-04T18:12:06.939Z,10.25
2023-03-04T18:17:00.775Z,8.40
2023-03-04T18:21:54.500Z,9.77
2023-03-04T18:24:21.352Z,8.07
2023-03-04T18:26:48.790Z,10.07
2023-03-04T18:29:15.518Z,8.77
2023-03-04T18:31:42.372Z,8.85
2023-03-04T18:34:11.152Z,10.13
2023-03-04T18:36:37.958Z,8.65
2023-03-04T18:39:07.301Z,10.20
2023-03-04T18:41:34.331Z,9.63
2023-03-04T18:44:01.412Z,8.02
2023-03-04T18:49:05.724Z,13.57
2023-03-04T18:51:32.942Z,15.02
2023-03-04T18:54:00.058Z,12.02
2023-03-04T18:59:31.335Z,9.63
2023-03-04T19:02:01.359Z,8.85
2023-03-04T19:04:29.444Z,7.60
2023-03-04T19:06:56.240Z,7.93
2023-03-04T19:09:22.973Z,9.63
2023-03-04T19:11:49.784Z,10.88
2023-03-04T19:14:16.490Z,10.38
2023-03-04T19:16:43.421Z,10.45
2023-03-04T19:19:10.124Z,8.38
2023-03-04T19:21:41.808Z,9.82
2023-03-04T19:24:08.753Z,11.32
2023-03-04T19:26:35.988Z,9.30
2023-03-04T19:29:03.042Z,8.57
2023-03-04T19:31:29.936Z,9.30
2023-03-04T19:33:56.778Z,9.93
2023-03-04T19:36:25.270Z,10.88
2023-03-04T19:38:52.306Z,9.27
2023-03-04T19:41:19.258Z,10.43
2023-03-04T19:43:46.021Z,9.10
2023-03-04T19:46:16.347Z,9.48
2023-03-04T19:48:45.028Z,9.75
2023-03-04T19:51:22.980Z,9.75
2023-03-04T19:53:53.095Z,9.75
2023-03-04T19:56:20.574Z,12.10
2023-03-04T19:58:48.590Z,10.00
2023-03-04T20:01:30.730Z,10.90
2023-03-04T20:04:00.238Z,9.95
2023-03-04T20:06:27.602Z,10.55
2023-03-04T20:08:59.867Z,11.18
2023-03-04T20:11:28.284Z,9.30
2023-03-04T20:13:58.303Z,9.30
2023-03-04T20:16:25.886Z,9.85
2023-03-04T20:18:52.635Z,9.40
2023-03-04T20:21:19.893Z,9.50
2023-03-04T20:23:47.062Z,10.07
2023-03-04T20:28:49.814Z,10.10
2023-03-04T20:31:23.917Z,9.77
2023-03-04T20:33:51.490Z,9.63
2023-03-04T20:36:20.068Z,10.07
2023-03-04T20:38:50.350Z,9.20
2023-03-04T20:41:19.134Z,9.10
2023-03-04T20:43:45.852Z,10.30
2023-03-04T20:46:29.712Z,9.90
2023-03-04T20:48:58.735Z,10.77
2023-03-04T20:51:26.315Z,9.18
2023-03-04T20:53:55.194Z,9.88
2023-03-04T20:56:22.394Z,9.90
2023-03-04T21:01:17.535Z,11.65
2023-03-04T21:03:44.744Z,11.25
2023-03-04T21:08:41.037Z,10.70
2023-03-04T21:11:11.040Z,9.70
2023-03-04T21:13:37.843Z,11.95
2023-03-04T21:16:05.103Z,10.00
2023-03-04T21:18:32.044Z,9.65
2023-03-04T21:20:58.787Z,10.32
2023-03-04T21:23:25.588Z,11.02
2023-03-04T21:25:52.303Z,10.32
2023-03-04T21:28:20.475Z,10.10
2023-03-04T21:30:47.347Z,10.05
2023-03-04T21:33:21.184Z,9.80
2023-03-04T21:35:48.598Z,10.13
2023-03-04T21:38:15.514Z,10.35
2023-03-04T21:40:42.999Z,11.30
2023-03-04T21:43:09.880Z,10.45
2023-03-04T21:45:37.892Z,11.40
2023-03-04T21:48:04.985Z,9.50
2023-03-04T21:52:58.472Z,9.75
2023-03-04T21:55:25.431Z,9.40
2023-03-04T21:57:52.344Z,10.70
2023-03-04T22:00:19.620Z,12.40
2023-03-04T22:02:46.406Z,10.93
2023-03-04T22:05:13.252Z,11.43
2023-03-04T22:07:40.306Z,9.82
2023-03-04T22:10:07.601Z,9.30
2023-03-04T22:12:34.444Z,10.85
2023-03-04T22:15:01.234Z,10.40
2023-03-04T22:17:28.099Z,10.80
2023-03-04T22:19:55.214Z,10.40
2023-03-04T22:22:22.189Z,11.73
2023-03-04T22:24:48.969Z,10.13
2023-03-04T22:27:15.827Z,9.82
2023-03-04T22:29:42.633Z,10.57
2023-03-04T22:32:09.485Z,9.73
2023-03-04T22:34:36.302Z,10.30
2023-03-04T22:37:03.085Z,10.88
2023-03-04T22:39:29.910Z,10.85
2023-03-04T22:41:56.593Z,10.25
2023-03-04T22:44:23.497Z,10.93
2023-03-04T22:46:50.471Z,10.48
2023-03-04T22:49:17.444Z,9.20
2023-03-04T22:51:45.008Z,10.57
2023-03-04T22:54:16.849Z,10.98
2023-03-04T22:56:44.196Z,9.45
2023-03-04T22:59:11.051Z,9.98
2023-03-04T23:01:37.825Z,11.02
2023-03-04T23:04:04.750Z,10.63
2023-03-04T23:06:31.763Z,10.60
2023-03-04T23:08:59.534Z,10.80
2023-03-04T23:11:29.780Z,11.80
2023-03-04T23:13:57.164Z,12.38
2023-03-04T23:16:25.273Z,10.50
2023-03-04T23:18:53.253Z,10.88
2023-03-04T23:21:25.104Z,12.70
2023-03-04T23:23:52.752Z,10.93
2023-03-04T23:26:22.631Z,11.63
2023-03-04T23:28:49.687Z,11.18
2023-03-04T23:33:45.088Z,11.43
2023-03-04T23:36:15.236Z,10.77
2023-03-04T23:38:47.367Z,12.65
2023-03-04T23:41:17.576Z,11.77
2023-03-04T23:43:44.527Z,10.90
2023-03-04T23:46:11.935Z,12.13
2023-03-04T23:48:39.808Z,10.77
2023-03-04T23:51:06.981Z,12.30
2023-03-04T23:56:01.486Z,10.43
